Date,TemperatureHighF,TemperatureAvgF,TemperatureLowF,DewpointHighF,DewpointAvgF,DewpointLowF,HumidityHigh,HumidityAvg,HumidityLow,PressureMaxIn,PressureMinIn,WindSpeedMaxMPH,WindSpeedAvgMPH,GustSpeedMaxMPH,PrecipitationSumIn
2013-1-1,39,39,39,27,27,27,63,63,63,29.93,29.92,1,1,0,0.00
2013-1-6,41,40,40,27,27,26,60,58,56,30.09,30.04,2,0,2,0.00
2013-1-7,41,41,41,29,29,28,61,61,60,30.10,30.09,2,1,2,0.00
2013-1-10,41,41,41,27,27,27,58,57,57,30.52,30.52,0,0,0,0.00
2013-1-12,56,50,43,50,47,42,96,88,75,30.11,30.03,2,0,2,0.00
2013-1-13,49,49,49,48,48,48,96,96,96,30.01,30.01,1,1,0,0.00
2013-1-23,24,22,21,-1,-2,-4,38,34,29,30.13,30.09,5,1,5,0.00
2013-1-25,21,19,14,16,11,-2,83,71,45,30.44,29.98,7,1,7,0.00
2013-1-26,29,28,19,25,22,14,86,81,71,30.34,29.99,5,1,5,0.00
2013-1-27,26,26,26,14,14,14,61,61,61,30.51,30.51,0,0,0,0.00
2013-1-28,38,38,38,36,35,34,91,89,87,30.18,30.14,3,3,3,0.01
2013-1-29,65,62,59,53,51,50,72,67,62,30.06,30.01,1,0,1,0.00
2013-1-30,59,56,55,57,55,54,96,95,94,29.53,29.23,4,1,4,2.15
2013-1-31,55,52,38,54,48,23,96,88,54,29.50,29.18,9,2,9,0.21
2013-2-1,23,23,23,10,10,10,58,58,58,29.95,29.95,15,15,15,0.00
2013-2-2,28,26,23,21,16,6,78,65,48,30.12,29.93,5,2,5,0.00
2013-2-3,32,30,27,27,21,14,85,71,56,29.93,29.75,15,3,15,0.00
2013-2-4,33,33,33,19,19,19,55,55,55,29.81,29.81,0,0,0,0.00
2013-2-5,35,33,31,29,22,19,81,66,57,29.86,29.78,0,0,0,0.00
2013-2-8,41,40,40,31,29,29,68,66,65,29.76,29.76,11,10,11,0.00
2013-2-9,39,36,31,16,14,11,54,42,33,30.22,30.17,15,6,15,0.00
2013-2-11,41,40,38,39,37,35,91,90,90,29.90,29.89,0,0,0,0.00
2013-2-12,52,50,47,25,24,23,39,36,34,29.93,29.92,8,4,8,0.00
2013-2-13,44,37,33,31,29,27,93,73,53,29.77,29.63,2,1,2,0.10
2013-2-16,37,34,32,27,22,16,74,61,51,29.91,29.83,7,2,7,0.00
2013-2-19,50,45,40,39,36,32,74,71,66,29.81,29.67,16,5,16,0.00
2013-2-20,35,32,29,19,12,10,51,44,39,29.96,29.80,10,5,10,0.00
2013-2-21,35,29,24,15,14,10,62,52,40,30.27,30.12,11,3,11,0.00
2013-2-22,30,27,26,18,16,15,64,62,59,30.27,30.25,5,2,5,0.00
2013-2-23,33,33,33,27,27,26,77,77,76,30.11,30.08,2,1,2,0.00
2013-2-24,44,43,42,27,26,26,53,51,50,29.86,29.85,10,7,10,0.00
2013-2-26,40,39,31,38,36,22,94,90,68,30.09,29.58,11,3,11,0.61
2013-2-27,50,44,37,41,38,35,94,82,67,29.59,29.57,5,2,5,0.01
2013-2-28,41,40,39,29,27,25,66,60,54,29.68,29.60,6,3,6,0.00
2013-3-1,39,37,34,29,25,22,66,62,58,29.85,29.68,9,4,9,0.00
2013-3-4,41,37,27,15,13,11,51,37,30,29.95,29.91,13,6,13,0.00
2013-3-5,46,42,36,28,22,18,71,45,34,30.00,29.77,6,2,6,0.00
2013-3-6,39,36,32,34,30,28,95,82,64,29.97,29.64,14,5,14,0.62
2013-3-7,39,38,38,28,28,27,66,65,64,29.97,29.97,2,2,2,0.00
2013-3-9,40,39,38,26,26,25,59,57,56,30.33,30.32,2,2,2,0.00
2013-3-12,54,54,54,52,52,51,92,92,91,29.70,29.70,0,0,0,0.00
2013-3-13,46,44,42,26,20,16,49,39,31,29.89,29.86,11,5,11,0.00
2013-3-14,42,42,41,15,14,14,34,33,32,30.01,30.00,8,4,5,0.00
2013-3-15,42,42,41,18,18,18,39,38,37,29.97,29.96,1,1,1,0.00
2013-3-16,50,48,44,36,35,34,69,62,59,29.73,29.65,1,0,1,0.00
2013-3-17,37,37,37,29,29,29,73,73,73,30.09,30.09,0,0,0,0.00
2013-3-18,33,32,30,31,29,26,93,90,83,30.23,29.83,2,0,2,0.33
2013-3-19,43,35,33,38,33,31,94,92,84,29.83,29.74,2,0,2,0.00
2013-3-23,31,31,31,17,17,17,56,56,56,29.95,29.95,2,1,2,0.00
2013-3-24,34,34,34,23,23,23,64,64,64,29.88,29.88,3,3,3,0.00
2013-3-25,34,33,32,32,31,29,93,91,90,29.64,29.47,1,0,1,0.07
2013-3-26,40,37,33,31,30,26,93,76,58,29.83,29.64,10,2,10,0.00
2013-3-27,42,41,39,28,27,26,60,58,56,30.04,30.03,9,7,9,0.00
2013-3-28,44,43,43,29,29,28,58,56,54,30.12,30.11,7,5,7,0.00
2013-3-30,50,49,46,28,27,26,47,43,40,30.19,30.17,4,1,4,0.00
2013-3-31,50,46,43,46,41,31,92,82,55,29.91,29.70,4,0,4,0.13
2013-4-1,49,45,42,43,30,24,93,59,45,29.86,29.72,15,4,15,0.00
2013-4-2,38,38,38,12,11,11,34,33,32,30.06,30.06,10,6,10,0.00
2013-4-4,28,27,24,16,16,14,66,62,59,30.34,30.33,0,0,0,0.00
2013-4-5,52,52,52,30,30,30,43,43,43,29.87,29.87,7,7,7,0.00
2013-4-6,56,51,43,23,19,15,40,29,21,30.27,30.15,10,2,10,0.00
2013-4-7,47,46,46,26,24,21,46,42,37,30.17,30.14,11,5,11,0.00
2013-4-8,57,57,57,44,44,44,62,62,62,30.01,30.01,1,1,1,0.00
2013-4-10,83,81,77,56,54,51,42,40,39,29.93,29.91,5,2,5,0.00
2013-4-13,51,51,51,35,35,35,54,54,54,29.85,29.85,2,2,2,0.00
2013-4-17,67,66,66,64,60,57,93,80,71,30.15,30.14,8,5,8,0.00
2013-4-19,75,67,55,62,58,46,91,73,63,29.79,29.55,20,7,20,0.03
2013-4-20,45,45,45,27,27,27,48,48,48,29.98,29.98,2,2,2,0.00
2013-4-21,45,45,45,24,24,24,44,44,44,30.47,30.47,0,0,0,0.00
2013-4-23,50,46,40,40,37,33,79,73,66,30.27,30.22,6,1,6,0.00
2013-4-27,60,60,60,38,37,37,44,43,43,30.22,30.22,2,1,2,0.00
2013-4-28,60,55,52,46,33,-100,78,63,43,30.22,30.18,4,3,4,0.00
2013-4-29,57,55,54,55,53,52,93,93,92,30.04,30.01,4,0,4,0.06
2013-4-30,54,54,54,53,53,53,95,95,95,30.12,30.12,2,2,2,0.00
2013-5-1,54,54,54,45,45,45,71,71,71,30.30,30.30,0,0,0,0.00
2013-5-4,66,59,54,41,40,37,58,50,40,30.18,30.11,4,1,4,0.00
2013-5-5,53,51,50,39,38,38,63,62,59,30.16,30.16,0,0,0,0.00
2013-5-7,62,60,57,60,58,53,95,93,87,29.96,29.87,7,3,7,0.53
2013-5-8,69,60,53,58,54,50,96,81,56,29.96,29.88,7,1,7,0.20
2013-5-9,54,52,51,53,50,49,95,93,91,29.93,29.92,0,0,0,0.00
2013-5-10,66,63,62,62,60,59,95,92,87,29.91,29.83,3,0,3,0.49
2013-5-11,78,70,62,64,61,57,95,75,56,29.84,29.68,9,2,9,0.00
2013-5-12,60,54,44,29,27,25,55,36,28,29.99,29.86,11,3,11,0.00
2013-5-13,57,53,43,29,24,20,56,33,25,30.07,29.98,14,5,14,0.00
2013-5-14,41,41,41,35,35,35,79,79,79,30.17,30.17,0,0,1,0.00
2013-5-15,63,62,59,51,49,47,65,64,63,29.87,29.83,3,1,3,0.00
2013-5-16,70,68,66,55,55,53,68,62,58,29.90,29.87,3,1,3,0.00
2013-5-17,74,67,61,59,55,53,77,66,59,30.06,29.90,1,0,1,0.00
2013-5-20,81,80,80,66,66,64,62,61,59,29.95,29.93,9,3,9,0.00
2013-5-21,69,69,68,63,63,62,82,82,82,29.95,29.95,0,0,0,0.00
2013-5-22,71,67,66,65,64,63,93,89,75,29.90,29.83,3,0,3,0.33
2013-5-23,72,65,63,64,63,61,95,92,74,29.86,29.70,7,1,13,0.14
2013-5-24,52,52,52,42,42,42,68,68,68,29.92,29.92,7,7,7,0.00
2013-5-25,63,58,49,37,34,32,59,41,31,30.17,30.08,10,5,10,0.00
2013-5-26,59,58,57,37,36,36,47,45,42,30.19,30.14,0,0,0,0.00
2013-5-27,56,53,51,38,38,36,60,56,46,30.20,30.19,0,0,0,0.00
2013-5-29,83,79,77,65,64,64,64,61,54,30.03,30.02,2,0,2,0.00
2013-6-1,74,74,74,63,63,63,68,68,68,29.98,29.98,1,1,0,0.00
2013-6-2,76,71,68,69,67,64,95,88,66,29.86,29.79,4,1,4,0.96
2013-6-3,76,70,65,68,62,54,95,77,63,29.93,29.82,4,1,4,0.27
2013-6-4,65,60,58,54,46,43,67,61,58,30.08,29.93,0,0,0,0.00
2013-6-5,76,75,74,55,54,53,50,48,47,30.09,30.07,5,4,5,0.00
2013-6-6,66,64,62,65,62,51,95,92,68,29.97,29.81,3,1,3,0.35
2013-6-7,68,66,64,67,64,63,95,94,92,29.81,29.60,6,2,6,0.01
2013-6-8,68,67,66,64,60,57,92,81,68,29.92,29.70,7,2,7,0.00
2013-6-9,69,69,69,61,61,61,76,76,76,30.15,30.15,2,2,2,0.00
2013-6-10,80,72,67,72,68,66,95,89,71,30.05,29.74,7,1,7,0.80
2013-6-11,70,68,66,66,65,65,95,91,85,29.79,29.79,1,0,1,0.00
2013-6-12,88,83,74,68,66,62,82,57,44,29.84,29.75,9,2,9,0.00
2013-6-13,74,70,67,68,60,53,91,72,61,29.79,29.48,16,4,16,0.01
2013-6-14,78,71,66,54,52,49,62,51,37,29.87,29.61,10,5,10,0.00
2013-6-15,81,71,64,55,52,47,72,53,31,29.99,29.96,3,0,3,0.00
2013-6-16,66,64,63,55,54,54,75,71,65,30.00,29.99,1,0,1,0.00
2013-6-17,85,82,77,70,69,63,77,64,48,29.88,29.84,1,0,1,0.00
2013-6-23,74,72,70,69,68,67,91,88,85,30.15,30.14,4,2,4,0.00
2013-6-25,90,82,72,70,67,61,76,60,51,30.01,29.86,3,1,3,0.00
2013-6-26,76,73,70,65,63,62,77,73,70,29.90,29.88,3,0,3,0.00
2013-6-27,70,70,70,68,68,68,95,95,95,29.75,29.75,0,0,0,0.00
2013-6-28,79,77,75,68,64,61,74,63,54,29.56,29.47,3,1,3,0.00
2013-6-29,86,79,68,67,62,57,94,58,38,29.68,29.56,5,1,5,0.27
2013-6-30,84,73,67,73,68,66,95,86,65,29.73,29.67,2,0,2,0.28
2013-7-1,75,75,74,68,68,68,83,81,80,29.88,29.85,2,2,2,0.00
2013-7-3,84,80,73,73,71,70,93,76,66,30.18,30.13,9,2,9,0.00
2013-7-4,85,81,74,71,70,69,87,71,61,30.21,30.18,4,1,4,0.00
2013-7-6,89,88,87,71,70,69,59,56,53,30.15,30.14,1,0,1,0.00
2013-7-7,71,70,69,69,68,68,95,95,92,30.05,30.00,2,0,2,0.02
2013-7-8,83,78,69,70,67,63,95,70,53,30.09,30.03,7,1,7,0.00
2013-7-10,77,77,76,71,71,70,83,82,81,29.96,29.95,3,1,3,0.00
2013-7-12,68,68,68,65,65,65,89,89,89,29.98,29.98,0,0,0,0.00
2013-7-14,84,84,83,71,71,71,68,67,66,30.31,30.30,4,3,4,0.00
2013-7-16,78,78,76,72,72,72,88,83,82,30.24,30.24,0,0,0,0.00
2013-7-17,85,84,81,74,73,72,74,70,69,30.22,30.21,5,2,5,0.00
2013-7-18,81,81,81,73,73,73,76,76,76,30.10,30.10,0,0,0,0.00
2013-7-21,79,75,73,73,71,70,93,87,77,29.92,29.85,2,0,2,0.00
2013-7-22,74,71,70,71,69,68,96,94,84,29.91,29.73,6,1,5,0.21
2013-7-23,85,78,70,69,67,65,96,71,52,29.74,29.63,6,1,6,0.00
2013-7-26,65,65,65,57,57,57,76,76,76,30.07,30.07,0,0,0,0.00
2013-7-27,76,74,72,69,68,67,84,81,76,29.89,29.87,11,4,11,0.00
2013-7-28,73,73,72,68,68,67,85,85,84,29.88,29.88,0,0,0,0.00
2013-8-1,67,67,67,66,66,66,95,95,95,29.88,29.88,0,0,0,0.00
2013-8-2,68,68,68,63,63,63,83,83,83,29.92,29.91,1,0,1,0.00
2013-8-3,71,70,69,67,66,65,90,86,85,29.94,29.92,3,0,3,0.02
2013-8-4,68,68,68,59,59,59,73,73,73,29.96,29.96,1,1,1,0.00
2013-8-5,69,67,65,58,58,57,76,72,67,29.99,29.98,0,0,0,0.00
2013-8-6,77,69,64,65,62,58,95,77,65,30.01,29.98,1,0,1,0.00
2013-8-7,73,72,72,71,70,70,93,92,91,29.99,29.97,2,1,2,0.01
2013-8-8,72,72,72,71,70,70,96,95,93,29.98,29.97,1,0,1,0.00
2013-8-10,83,77,70,66,63,59,85,63,44,30.05,29.99,2,0,2,0.00
2013-8-11,70,68,68,65,65,65,91,89,85,30.05,30.04,0,0,0,0.00
2013-8-13,68,68,68,66,66,66,94,94,94,29.78,29.78,0,0,0,0.00
2013-8-14,65,65,63,49,48,48,61,55,54,29.97,29.96,6,5,6,0.00
2013-8-15,58,58,57,54,54,54,90,87,86,30.15,30.15,0,0,0,0.00
2013-8-16,66,65,62,56,56,55,79,71,69,30.16,30.14,0,0,0,0.00
2013-8-17,62,60,60,55,54,54,80,80,77,30.17,30.15,0,0,0,0.00
2013-8-18,63,63,63,60,60,60,91,91,91,30.21,30.21,0,0,0,0.00
2013-8-19,63,63,62,62,62,61,95,95,95,30.11,30.11,0,0,0,0.00
2013-8-20,71,71,71,68,68,68,89,89,89,30.14,30.14,0,0,0,0.00
2013-8-21,85,75,68,72,68,65,92,79,56,30.16,30.03,8,1,8,0.03
2013-8-22,68,68,68,66,65,65,93,92,91,30.06,30.04,0,0,0,0.00
2013-8-23,71,71,71,61,61,61,71,71,71,30.03,30.03,0,0,0,0.00
2013-8-24,80,73,62,62,58,54,88,61,41,30.29,30.23,5,1,5,0.00
2013-8-25,64,57,61,58,44,-100,88,78,82,30.37,30.29,1,0,1,0.00
2013-8-26,82,75,65,62,61,60,84,64,50,30.22,30.17,1,0,1,0.00
2013-9-6,61,57,55,48,47,46,76,70,59,30.11,30.11,0,0,0,0.00
2013-9-7,81,70,55,59,54,48,78,60,38,30.11,29.91,1,0,1,0.00
2013-9-8,85,76,64,64,56,-100,78,55,46,30.01,29.86,4,1,4,0.00
2013-9-9,71,70,70,59,56,53,69,60,54,30.15,30.01,2,1,2,0.00
2013-9-11,79,79,79,71,71,71,76,76,76,30.13,30.13,0,0,0,0.00
2013-9-12,78,75,73,66,64,62,75,68,61,29.75,29.73,6,1,6,0.00
2013-9-13,73,71,66,63,57,52,72,63,51,29.79,29.73,12,-64,12,0.00
2013-9-14,53,53,53,43,43,43,70,70,70,30.05,30.05,2,2,2,0.00
2013-9-15,76,65,53,54,52,49,85,62,46,30.19,30.04,2,1,2,0.00
2013-9-16,68,68,68,53,53,53,58,58,58,30.11,30.11,5,5,5,0.00
2013-9-17,52,50,48,42,41,40,77,72,68,30.39,30.29,1,0,1,0.00
2013-9-18,48,47,46,43,42,40,89,82,74,30.30,30.29,1,0,1,0.00
2013-9-19,54,52,49,51,50,47,93,90,88,30.14,30.12,0,0,0,0.00
2013-9-21,68,64,60,64,61,59,96,89,80,29.79,29.65,12,3,12,0.60
2013-9-22,62,55,59,59,43,-100,96,80,78,29.83,29.71,5,2,5,0.00
2013-9-23,54,52,49,44,44,42,80,72,67,30.06,30.03,1,0,1,0.00
2013-9-24,72,59,45,49,45,42,90,64,41,30.06,29.92,3,1,3,0.00
2013-9-29,52,52,51,50,50,49,93,93,93,30.18,30.17,2,0,2,0.00
2013-9-30,61,59,58,54,53,53,84,81,77,30.00,29.99,0,0,0,0.00
2013-10-1,58,58,58,54,54,54,85,85,85,29.99,29.99,0,0,0,0.00
2013-10-2,57,57,57,53,53,53,87,87,87,30.02,30.02,0,0,0,0.00
2013-10-3,60,60,58,57,57,56,93,91,91,30.09,30.09,1,0,1,0.00
2013-10-5,85,81,74,65,64,63,72,56,49,30.07,30.04,6,1,6,0.00
2013-10-7,60,57,53,56,47,43,93,70,56,30.03,29.79,5,1,5,0.00
2013-10-8,58,55,53,46,44,43,68,66,64,30.25,30.03,3,2,3,0.00
2013-10-10,54,53,51,53,52,48,97,94,90,30.14,30.01,5,2,5,0.79
2013-10-11,55,54,53,54,53,52,96,96,95,30.00,29.96,2,1,2,0.10
2013-10-12,63,60,58,60,58,56,96,94,90,30.15,30.06,3,1,3,0.24
2013-10-13,58,54,57,57,48,-100,96,90,95,30.28,30.14,2,0,2,0.03
2013-10-14,57,56,54,56,55,52,96,95,93,30.29,30.27,2,1,2,0.00
2013-10-15,61,56,53,52,51,47,96,83,69,30.19,30.04,1,0,0,0.00
2013-10-16,55,55,54,48,48,47,78,78,78,30.04,30.04,0,0,0,0.00
2013-10-17,59,59,59,57,57,57,92,92,92,29.85,29.85,0,0,0,0.00
2013-10-18,56,51,47,43,41,40,82,71,54,29.98,29.95,7,2,7,0.00
2013-10-19,63,57,45,53,49,41,87,77,68,29.95,29.72,11,2,11,0.00
2013-10-20,52,51,50,36,35,33,57,53,51,30.02,29.88,2,2,2,0.00
2013-10-22,55,55,55,47,47,47,74,74,74,29.83,29.83,1,1,0,0.00
2013-10-23,50,49,45,35,34,33,67,57,53,29.70,29.67,3,1,3,0.00
2013-10-24,42,42,42,31,31,31,66,66,66,29.98,29.98,0,0,0,0.00
2013-10-25,42,42,42,31,31,31,64,64,64,30.23,30.23,1,1,1,0.00
2013-10-26,52,51,50,28,28,28,42,40,39,29.91,29.88,5,1,5,0.00
2013-10-27,47,38,47,33,6,-100,59,47,59,30.00,29.91,1,1,0,0.00
2013-10-30,64,59,52,51,49,47,87,69,62,30.20,30.15,2,1,2,0.00
2013-11-1,72,69,68,43,43,41,41,39,33,29.57,29.57,1,0,1,0.00
2013-11-4,34,34,34,23,23,23,65,65,65,30.41,30.41,0,0,0,0.00
2013-11-5,39,39,39,29,29,29,66,66,66,30.56,30.56,2,2,2,0.00
2013-11-7,50,47,46,34,30,26,54,50,46,30.02,29.94,14,8,14,0.00
2013-11-8,38,38,38,24,24,24,57,57,57,30.07,30.07,2,2,2,0.00
2013-11-10,46,45,45,25,24,24,44,43,42,30.14,30.13,7,6,7,0.00
2013-11-14,37,36,33,17,16,16,50,46,44,30.30,30.29,2,1,2,0.00
2013-11-16,56,56,55,45,45,45,70,68,67,30.25,30.24,4,3,4,0.00
2013-11-18,63,61,59,57,46,36,82,62,42,29.73,29.62,2,1,2,0.00
2013-11-22,46,46,46,41,41,41,84,84,84,30.17,30.17,0,0,0,0.00
2013-11-24,25,25,25,2,2,2,37,37,37,30.36,30.36,7,7,7,0.00
2013-11-25,19,18,17,7,6,5,65,56,53,30.47,30.44,2,1,2,0.00
2013-11-26,34,33,33,32,31,30,94,92,90,30.11,29.72,5,2,7,1.21
2013-11-27,38,37,37,30,28,27,73,69,67,29.58,29.55,12,6,12,0.00
2013-11-28,30,30,30,14,14,14,51,50,50,30.32,30.32,5,3,5,0.00
2013-11-30,33,27,23,20,18,16,76,68,58,30.65,30.58,3,1,3,0.00
2013-12-1,37,32,25,27,23,18,74,70,67,30.24,29.96,1,0,0,0.00
2013-12-2,36,36,36,27,27,27,69,69,69,29.96,29.89,1,0,0,0.00
2013-12-5,48,48,48,47,47,47,96,96,96,29.97,29.97,1,1,0,0.00
2013-12-6,43,42,36,41,40,34,94,91,89,30.11,30.03,7,3,7,0.00
2013-12-7,38,36,32,34,26,21,94,70,59,30.44,30.11,14,4,14,0.04
2013-12-8,27,25,24,25,22,19,92,88,81,30.51,30.25,3,1,3,1.03
2013-12-9,36,32,28,33,29,26,94,91,87,30.25,29.97,2,0,2,0.18
2013-12-10,36,31,27,32,22,11,94,72,46,30.14,29.94,10,2,10,0.07
2013-12-11,36,30,25,15,14,12,57,51,41,30.33,30.15,2,1,2,0.00
2013-12-12,21,21,20,7,7,6,55,55,55,30.36,30.34,2,1,2,0.00
2013-12-13,24,24,24,10,10,10,54,54,54,30.20,30.20,1,1,1,0.00
2013-12-14,34,32,31,31,27,-100,94,89,84,30.24,29.69,2,1,2,0.18
2013-12-15,35,33,31,31,25,20,95,75,59,29.88,29.61,3,1,3,0.00
2013-12-16,35,33,32,24,23,23,71,67,62,30.02,29.88,5,4,5,0.00
2013-12-18,33,33,32,19,19,19,59,56,56,30.11,30.11,1,1,1,0.00
2013-12-19,30,30,30,18,18,18,60,60,60,30.07,30.07,1,1,1,0.00
2013-12-22,61,61,61,59,59,59,93,93,93,29.92,29.92,1,1,1,0.00
2013-12-23,51,42,36,43,31,25,73,65,61,30.19,30.00,10,3,10,0.00
2013-12-24,37,32,25,20,13,4,57,45,37,30.34,30.15,14,6,14,0.00
2013-12-25,30,28,24,10,9,8,51,44,38,30.50,30.27,6,2,6,0.00
2013-12-26,26,26,25,10,10,9,51,51,51,30.26,30.25,2,1,2,0.00
2013-12-27,39,39,39,19,19,19,45,45,45,30.35,30.35,5,5,5,0.00
2013-12-29,49,44,41,45,40,36,95,87,68,29.79,29.51,9,2,9,0.30
2013-12-30,42,42,42,31,31,31,65,65,65,29.94,29.94,4,4,4,0.00
2013-12-31,39,38,35,26,26,25,66,62,60,30.07,30.05,3,3,3,0.00